Terminal Aerodrome Forecast
Issued by NWS

Home | Current Version | Previous Version | Text Only | Print | Product List | Glossary On
Versions: 1 2 3 4 5 6 7 8 9 10 11 12
000
FTUS45 KCYS 231735
TAFLAR
TAF
KLAR 231735Z 2318/2418 36007KT P6SM SCT090
     FM232100 32010KT P6SM VCTS BKN090CB
     FM240100 21009KT P6SM SCT100
     FM240600 18006KT P6SM SCT100
     FM241500 24008KT P6SM BKN100=

USA.gov is the U.S. government's official web portal to all federal, state and local government web resources and services.